createdAt,value
2023-04-13T00:00:46.957Z,994.36
2023-04-13T00:01:47.029Z,994.34
2023-04-13T00:02:47.140Z,994.36
2023-04-13T00:03:47.533Z,994.31
2023-04-13T00:04:47.079Z,994.32
2023-04-13T00:05:47.199Z,994.35
2023-04-13T00:06:47.129Z,994.33
2023-04-13T00:07:47.157Z,994.35
2023-04-13T00:08:47.186Z,994.29
2023-04-13T00:09:47.433Z,994.26
2023-04-13T00:10:47.542Z,994.22
2023-04-13T00:11:47.271Z,994.29
2023-04-13T00:12:47.301Z,994.26
2023-04-13T00:13:47.366Z,994.30
2023-04-13T00:15:47.413Z,994.23
2023-04-13T00:16:47.487Z,994.23
2023-04-13T00:17:47.778Z,994.21
2023-04-13T00:18:47.481Z,994.20
2023-04-13T00:19:47.504Z,994.22
2023-04-13T00:20:47.536Z,994.22
2023-04-13T00:21:47.568Z,994.25
2023-04-13T00:22:47.600Z,994.20
2023-04-13T00:23:47.626Z,994.17
2023-04-13T00:24:47.988Z,994.13
2023-04-13T00:25:47.685Z,994.15
2023-04-13T00:26:47.711Z,994.11
2023-04-13T00:27:47.743Z,994.19
2023-04-13T00:28:47.871Z,994.14
2023-04-13T00:29:47.801Z,994.16
2023-04-13T00:30:47.857Z,994.11
2023-04-13T00:31:48.240Z,994.09
2023-04-13T00:33:47.917Z,994.12
2023-04-13T00:34:47.948Z,994.08
2023-04-13T00:36:48.024Z,994.08
2023-04-13T00:37:48.034Z,994.08
2023-04-13T00:38:48.371Z,994.08
2023-04-13T00:39:48.096Z,994.10
2023-04-13T00:40:48.119Z,994.10
2023-04-13T00:41:48.153Z,994.10
2023-04-13T00:42:48.206Z,994.08
2023-04-13T00:43:48.213Z,994.10
2023-04-13T00:44:48.237Z,994.08
2023-04-13T00:45:48.625Z,994.08
2023-04-13T00:46:48.335Z,994.06
2023-04-13T00:47:48.365Z,994.11
2023-04-13T00:48:48.359Z,994.08
2023-04-13T00:49:48.385Z,994.09
2023-04-13T00:50:48.416Z,994.18
2023-04-13T00:51:48.442Z,994.10
2023-04-13T00:52:48.914Z,994.08
2023-04-13T00:53:48.514Z,994.08
2023-04-13T00:54:48.547Z,994.04
2023-04-13T00:55:48.591Z,994.05
2023-04-13T00:56:48.619Z,994.06
2023-04-13T00:57:48.621Z,994.04
2023-04-13T00:58:48.650Z,993.97
2023-04-13T00:59:49.026Z,994.01
2023-04-13T01:00:48.707Z,994.02
2023-04-13T01:01:48.822Z,994.00
2023-04-13T01:02:48.893Z,993.96
2023-04-13T01:03:48.815Z,993.94
2023-04-13T01:04:48.859Z,993.93
2023-04-13T01:05:48.858Z,993.93
2023-04-13T01:06:49.197Z,993.94
2023-04-13T01:07:48.911Z,993.97
2023-04-13T01:08:48.944Z,993.94
2023-04-13T01:09:48.973Z,993.91
2023-04-13T01:10:49.002Z,993.96
2023-04-13T01:11:49.033Z,993.96
2023-04-13T01:12:49.053Z,993.96
2023-04-13T01:13:49.388Z,993.91
2023-04-13T01:14:49.120Z,993.94
2023-04-13T01:15:49.191Z,993.97
2023-04-13T01:16:49.187Z,993.87
2023-04-13T01:17:49.238Z,993.88
2023-04-13T01:18:49.250Z,993.92
2023-04-13T01:19:49.278Z,993.88
2023-04-13T01:20:49.598Z,993.86
2023-04-13T01:21:49.334Z,993.96
2023-04-13T01:22:49.343Z,993.89
2023-04-13T01:23:49.375Z,993.95
2023-04-13T01:24:49.422Z,993.96
2023-04-13T01:25:49.440Z,993.94
2023-04-13T01:26:49.765Z,993.96
2023-04-13T01:27:49.514Z,993.98
2023-04-13T01:28:49.533Z,993.98
2023-04-13T01:29:49.562Z,993.96
2023-04-13T01:30:49.594Z,993.93
2023-04-13T01:31:49.675Z,993.92
2023-04-13T01:32:49.972Z,993.93
2023-04-13T01:33:49.668Z,993.89
2023-04-13T01:34:49.701Z,993.92
2023-04-13T01:35:49.745Z,993.87
2023-04-13T01:36:49.754Z,993.87
2023-04-13T01:37:49.804Z,993.88
2023-04-13T01:38:50.132Z,993.83
2023-04-13T01:40:49.875Z,993.85
2023-04-13T01:41:49.901Z,993.89
2023-04-13T01:42:49.931Z,993.89
2023-04-13T01:43:49.960Z,993.89
2023-04-13T01:44:49.992Z,993.86
2023-04-13T01:45:50.316Z,993.87
2023-04-13T01:46:50.080Z,993.83
2023-04-13T01:47:50.130Z,993.88
2023-04-13T01:48:50.120Z,993.92
2023-04-13T01:49:50.131Z,993.92
2023-04-13T01:50:50.165Z,993.97
2023-04-13T01:51:50.225Z,993.91
2023-04-13T01:52:50.521Z,993.93
2023-04-13T01:53:50.248Z,993.93
2023-04-13T01:54:50.289Z,993.91
2023-04-13T01:55:50.321Z,993.91
2023-04-13T01:56:50.348Z,993.90
2023-04-13T01:57:50.373Z,993.90
2023-04-13T01:58:50.412Z,993.97
2023-04-13T01:59:50.738Z,993.88
2023-04-13T02:00:50.526Z,993.94
2023-04-13T02:01:50.579Z,993.93
2023-04-13T02:02:50.790Z,993.93
2023-04-13T02:03:50.582Z,993.92
2023-04-13T02:06:50.939Z,993.95
2023-04-13T02:07:50.680Z,993.93
2023-04-13T02:08:52.527Z,993.90
2023-04-13T02:09:50.733Z,993.96
2023-04-13T02:11:50.775Z,993.95
2023-04-13T02:12:50.810Z,993.99
2023-04-13T02:13:51.136Z,993.97
2023-04-13T02:14:50.864Z,993.98
2023-04-13T02:15:50.897Z,993.98
2023-04-13T02:16:50.993Z,994.00
2023-04-13T02:17:50.971Z,993.99
2023-04-13T02:18:50.980Z,993.99
2023-04-13T02:19:51.010Z,993.97
2023-04-13T02:20:51.356Z,994.01
2023-04-13T02:21:51.071Z,993.97
2023-04-13T02:22:51.100Z,994.00
2023-04-13T02:23:51.148Z,993.99
2023-04-13T02:24:51.170Z,993.98
2023-04-13T02:25:51.196Z,994.01
2023-04-13T02:26:51.222Z,994.03
2023-04-13T02:27:51.543Z,994.03
2023-04-13T02:28:51.363Z,994.01
2023-04-13T02:29:51.311Z,994.04
2023-04-13T02:31:51.394Z,994.05
2023-04-13T02:32:51.411Z,994.13
2023-04-13T02:33:51.427Z,994.06
2023-04-13T02:34:51.750Z,994.10
2023-04-13T02:37:51.538Z,994.00
2023-04-13T02:38:51.568Z,994.02
2023-04-13T02:39:51.612Z,994.02
2023-04-13T02:40:51.620Z,994.06
2023-04-13T02:41:51.951Z,994.01
2023-04-13T02:42:51.729Z,994.09
2023-04-13T02:43:51.713Z,994.00
2023-04-13T02:44:51.734Z,994.03
2023-04-13T02:45:51.819Z,994.00
2023-04-13T02:46:51.842Z,994.02
2023-04-13T02:47:51.866Z,994.04
2023-04-13T02:48:52.156Z,994.05
2023-04-13T02:49:51.888Z,994.06
2023-04-13T02:50:51.913Z,994.11
2023-04-13T02:51:51.947Z,994.08
2023-04-13T02:53:52.001Z,994.09
2023-04-13T02:54:52.030Z,994.11
2023-04-13T02:55:52.393Z,994.12
2023-04-13T02:56:52.090Z,994.11
2023-04-13T02:57:52.157Z,994.09
2023-04-13T02:58:52.144Z,994.02
2023-04-13T02:59:52.172Z,994.12
2023-04-13T03:00:52.251Z,994.11
2023-04-13T03:01:52.450Z,994.09
2023-04-13T03:02:52.717Z,994.08
2023-04-13T03:03:52.291Z,994.11
2023-04-13T03:04:52.385Z,994.05
2023-04-13T03:05:52.344Z,994.12
2023-04-13T03:06:52.383Z,994.03
2023-04-13T03:07:52.416Z,994.06
2023-04-13T03:08:52.438Z,994.07
2023-04-13T03:10:52.500Z,994.08
2023-04-13T03:11:52.567Z,994.04
2023-04-13T03:12:52.561Z,994.02
2023-04-13T03:13:52.580Z,994.06
2023-04-13T03:14:52.625Z,994.10
2023-04-13T03:15:52.640Z,994.11
2023-04-13T03:16:52.991Z,994.07
2023-04-13T03:17:52.751Z,994.08
2023-04-13T03:19:52.754Z,994.13
2023-04-13T03:20:52.791Z,994.14
2023-04-13T03:21:52.818Z,994.16
2023-04-13T03:22:53.154Z,994.18
2023-04-13T03:23:52.878Z,994.18
2023-04-13T03:24:52.901Z,994.18
2023-04-13T03:25:52.940Z,994.16
2023-04-13T03:26:52.970Z,994.16
2023-04-13T03:27:53.078Z,994.09
2023-04-13T03:28:53.325Z,994.16
2023-04-13T03:29:53.060Z,994.21
2023-04-13T03:30:53.139Z,994.16
2023-04-13T03:31:53.126Z,994.23
2023-04-13T03:32:53.202Z,994.23
2023-04-13T03:33:53.175Z,994.19
2023-04-13T03:34:53.498Z,994.21
2023-04-13T03:35:53.224Z,994.19
2023-04-13T03:36:53.260Z,994.20
2023-04-13T03:37:53.291Z,994.21
2023-04-13T03:38:53.327Z,994.15
2023-04-13T03:39:53.350Z,994.20
2023-04-13T03:40:53.384Z,994.15
2023-04-13T03:42:53.793Z,994.16
2023-04-13T03:44:53.533Z,994.19
2023-04-13T03:45:53.544Z,994.22
2023-04-13T03:46:53.555Z,994.24
2023-04-13T03:47:53.630Z,994.31
2023-04-13T03:48:53.925Z,994.29
2023-04-13T03:49:53.644Z,994.34
2023-04-13T03:50:53.698Z,994.30
2023-04-13T03:51:53.699Z,994.25
2023-04-13T03:52:53.723Z,994.26
2023-04-13T03:53:53.747Z,994.26
2023-04-13T03:54:53.859Z,994.30
2023-04-13T03:55:54.108Z,994.26
2023-04-13T03:56:53.846Z,994.41
2023-04-13T03:57:53.904Z,994.33
2023-04-13T03:58:53.906Z,994.41
2023-04-13T03:59:53.934Z,994.38
2023-04-13T04:00:53.973Z,994.38
2023-04-13T04:01:54.015Z,994.37
2023-04-13T04:02:54.474Z,994.43
2023-04-13T04:03:54.111Z,994.39
2023-04-13T04:04:54.161Z,994.46
2023-04-13T04:05:54.114Z,994.42
2023-04-13T04:06:54.144Z,994.45
2023-04-13T04:07:54.153Z,994.46
2023-04-13T04:09:54.222Z,994.49
2023-04-13T04:10:54.593Z,994.54
2023-04-13T04:11:54.275Z,994.51
2023-04-13T04:12:54.300Z,994.56
2023-04-13T04:13:54.337Z,994.59
2023-04-13T04:14:54.357Z,994.63
2023-04-13T04:15:54.411Z,994.59
2023-04-13T04:16:54.469Z,994.60
2023-04-13T04:18:54.784Z,994.69
2023-04-13T04:19:54.509Z,994.66
2023-04-13T04:20:54.539Z,994.74
2023-04-13T04:21:54.565Z,994.67
2023-04-13T04:22:54.608Z,994.76
2023-04-13T04:24:54.652Z,994.73
2023-04-13T04:25:54.984Z,994.76
2023-04-13T04:26:54.725Z,994.65
2023-04-13T04:27:54.744Z,994.77
2023-04-13T04:28:54.792Z,994.74
2023-04-13T04:29:54.798Z,994.81
2023-04-13T04:30:54.880Z,994.74
2023-04-13T04:31:54.869Z,994.83
2023-04-13T04:32:55.326Z,994.83
2023-04-13T04:34:54.967Z,994.89
2023-04-13T04:35:55.000Z,994.94
2023-04-13T04:36:57.014Z,994.89
2023-04-13T04:37:55.032Z,994.91
2023-04-13T04:38:55.055Z,995.01
2023-04-13T04:39:55.382Z,994.94
2023-04-13T04:40:55.114Z,995.00
2023-04-13T04:41:55.217Z,995.05
2023-04-13T04:42:55.171Z,995.09
2023-04-13T04:43:55.203Z,995.08
2023-04-13T04:44:55.238Z,995.09
2023-04-13T04:45:55.275Z,995.12
2023-04-13T04:46:55.587Z,995.20
2023-04-13T04:47:55.378Z,995.16
2023-04-13T04:48:55.371Z,995.14
2023-04-13T04:49:55.373Z,995.17
2023-04-13T04:50:55.403Z,995.28
2023-04-13T04:51:55.431Z,995.30
2023-04-13T04:52:55.471Z,995.28
2023-04-13T04:53:56.991Z,995.33
2023-04-13T04:54:55.528Z,995.36
2023-04-13T04:56:55.588Z,995.40
2023-04-13T04:57:55.602Z,995.43
2023-04-13T04:58:55.640Z,995.42
2023-04-13T04:59:55.665Z,995.47
2023-04-13T05:00:56.050Z,995.44
2023-04-13T05:01:55.730Z,995.45
2023-04-13T05:02:55.891Z,995.42
2023-04-13T05:03:55.784Z,995.53
2023-04-13T05:04:55.902Z,995.53
2023-04-13T05:05:55.859Z,995.48
2023-04-13T05:06:55.870Z,995.57
2023-04-13T05:08:56.230Z,995.56
2023-04-13T05:09:55.967Z,995.59
2023-04-13T05:10:55.998Z,995.62
2023-04-13T05:11:56.062Z,995.68
2023-04-13T05:12:56.043Z,995.58
2023-04-13T05:13:56.105Z,995.66
2023-04-13T05:14:56.105Z,995.69
2023-04-13T05:15:56.468Z,995.72
2023-04-13T05:16:56.259Z,995.63
2023-04-13T05:17:56.301Z,995.70
2023-04-13T05:18:56.245Z,995.76
2023-04-13T05:19:56.254Z,995.77
2023-04-13T05:25:56.761Z,995.85
2023-04-13T05:26:56.446Z,995.86
2023-04-13T05:27:56.475Z,995.85
2023-04-13T05:28:56.704Z,995.85
2023-04-13T05:29:56.547Z,995.91
2023-04-13T05:30:56.567Z,995.92
2023-04-13T05:31:56.973Z,995.91
2023-04-13T05:32:56.644Z,995.92
2023-04-13T05:33:56.656Z,995.95
2023-04-13T05:34:56.679Z,995.96
2023-04-13T05:35:56.715Z,995.99
2023-04-13T05:36:56.741Z,995.95
2023-04-13T05:37:57.306Z,995.95
2023-04-13T05:38:56.961Z,995.97
2023-04-13T05:39:56.829Z,995.97
2023-04-13T05:40:56.850Z,995.96
2023-04-13T05:41:56.903Z,995.98
2023-04-13T05:42:56.921Z,996.00
2023-04-13T05:43:56.941Z,996.05
2023-04-13T05:44:56.976Z,996.06
2023-04-13T05:45:57.024Z,996.10
2023-04-13T05:46:57.048Z,996.10
2023-04-13T05:47:57.100Z,996.07
2023-04-13T05:48:57.240Z,996.10
2023-04-13T05:49:57.118Z,996.12
2023-04-13T05:50:57.479Z,996.18
2023-04-13T05:51:57.230Z,996.14
2023-04-13T05:52:57.318Z,996.14
2023-04-13T05:53:57.547Z,996.18
2023-04-13T05:54:57.256Z,996.16
2023-04-13T05:55:57.303Z,996.13
2023-04-13T05:56:57.318Z,996.15
2023-04-13T05:58:57.928Z,996.30
2023-04-13T05:59:57.396Z,996.36
2023-04-13T06:00:57.435Z,996.40
2023-04-13T06:02:57.866Z,996.44
2023-04-13T06:03:57.682Z,996.43
2023-04-13T06:04:57.700Z,996.47
2023-04-13T06:05:57.874Z,996.46
2023-04-13T06:06:57.880Z,996.52
2023-04-13T06:07:57.881Z,996.52
2023-04-13T06:08:58.346Z,996.55
2023-04-13T06:09:57.954Z,996.54
2023-04-13T06:10:58.036Z,996.57
2023-04-13T06:11:57.741Z,996.57
2023-04-13T06:12:58.070Z,996.62
2023-04-13T06:13:59.985Z,996.66
2023-04-13T06:14:57.847Z,996.64
2023-04-13T06:15:57.861Z,996.72
2023-04-13T06:16:57.913Z,996.76
2023-04-13T06:17:58.015Z,996.80
2023-04-13T06:18:58.153Z,996.86
2023-04-13T06:19:58.275Z,996.88
2023-04-13T06:20:57.999Z,996.96
2023-04-13T06:21:58.030Z,997.01
2023-04-13T06:22:58.057Z,996.99
2023-04-13T06:23:58.093Z,996.99
2023-04-13T06:24:58.117Z,997.03
2023-04-13T06:25:58.162Z,997.00
2023-04-13T06:26:58.478Z,997.04
2023-04-13T06:27:58.224Z,997.10
2023-04-13T06:28:58.688Z,997.05
2023-04-13T06:29:58.272Z,997.09
2023-04-13T06:30:58.357Z,997.09
2023-04-13T06:31:58.338Z,997.09
2023-04-13T06:32:58.406Z,997.14
2023-04-13T06:33:58.690Z,997.13
2023-04-13T06:35:58.448Z,997.15
2023-04-13T06:36:58.484Z,997.18
2023-04-13T06:37:58.502Z,997.14
2023-04-13T06:38:58.726Z,997.18
2023-04-13T06:39:58.565Z,997.26
2023-04-13T06:40:58.985Z,997.17
2023-04-13T06:42:58.653Z,997.19
2023-04-13T06:43:58.677Z,997.21
2023-04-13T06:47:58.964Z,997.21
2023-04-13T06:48:59.027Z,997.27
2023-04-13T06:49:58.838Z,997.26
2023-04-13T06:50:58.869Z,997.32
2023-04-13T06:51:58.898Z,997.31
2023-04-13T06:53:00.580Z,997.31
2023-04-13T06:53:58.956Z,997.24
2023-04-13T06:54:58.989Z,997.33
2023-04-13T06:55:59.018Z,997.32
2023-04-13T06:56:59.055Z,997.37
2023-04-13T06:57:59.081Z,997.42
2023-04-13T06:59:01.554Z,997.35
2023-04-13T06:59:59.143Z,997.36
2023-04-13T07:00:59.253Z,997.38
2023-04-13T07:01:59.315Z,997.39
2023-04-13T07:02:59.518Z,997.43
2023-04-13T07:03:59.431Z,997.45
2023-04-13T07:04:59.682Z,997.49
2023-04-13T07:05:59.304Z,997.50
2023-04-13T07:06:59.335Z,997.57
2023-04-13T07:07:59.369Z,997.57
2023-04-13T07:08:59.589Z,997.53
2023-04-13T07:10:00.470Z,997.50
2023-04-13T07:10:59.478Z,997.59
2023-04-13T07:12:59.533Z,997.59
2023-04-13T07:13:59.544Z,997.58
2023-04-13T07:14:59.574Z,997.64
2023-04-13T07:15:59.674Z,997.66
2023-04-13T07:16:59.629Z,997.63
2023-04-13T07:17:59.994Z,997.61
2023-04-13T07:18:59.877Z,997.65
2023-04-13T07:19:59.846Z,997.65
2023-04-13T07:20:59.751Z,997.67
2023-04-13T07:21:59.770Z,997.67
2023-04-13T07:22:59.802Z,997.65
2023-04-13T07:23:59.836Z,997.68
2023-04-13T07:25:00.191Z,997.67
2023-04-13T07:26:59.938Z,997.65
2023-04-13T07:27:59.957Z,997.69
2023-04-13T07:29:00.146Z,997.68
2023-04-13T07:30:00.011Z,997.70
2023-04-13T07:31:00.135Z,997.69
2023-04-13T07:32:00.698Z,997.70
2023-04-13T07:33:00.266Z,997.68
2023-04-13T07:34:00.151Z,997.73
2023-04-13T07:35:00.154Z,997.77
2023-04-13T07:36:00.264Z,997.75
2023-04-13T07:37:00.219Z,997.84
2023-04-13T07:38:00.236Z,997.73
2023-04-13T07:39:00.842Z,997.79
2023-04-13T07:40:00.302Z,997.79
2023-04-13T07:41:00.329Z,997.85
2023-04-13T07:42:00.368Z,997.82
2023-04-13T07:43:00.398Z,997.80
2023-04-13T07:46:00.775Z,997.98
2023-04-13T07:47:00.588Z,997.93
2023-04-13T07:48:00.629Z,997.94
2023-04-13T07:49:00.845Z,997.96
2023-04-13T07:50:00.600Z,998.01
2023-04-13T07:51:00.621Z,998.02
2023-04-13T07:52:00.730Z,998.03
2023-04-13T07:53:00.989Z,998.03
2023-04-13T07:54:00.709Z,998.00
2023-04-13T07:55:00.847Z,998.01
2023-04-13T07:56:00.777Z,998.05
2023-04-13T07:57:00.797Z,998.10
2023-04-13T07:58:00.883Z,998.19
2023-04-13T07:59:01.563Z,998.13
2023-04-13T08:00:00.884Z,998.13
2023-04-13T08:01:00.999Z,998.19
2023-04-13T08:02:00.953Z,998.23
2023-04-13T08:03:01.183Z,998.20
2023-04-13T08:04:01.165Z,998.24
2023-04-13T08:05:01.612Z,998.26
2023-04-13T08:06:01.085Z,998.22
2023-04-13T08:07:01.089Z,998.25
2023-04-13T08:08:01.141Z,998.27
2023-04-13T08:09:01.246Z,998.24
2023-04-13T08:10:01.176Z,998.30
2023-04-13T08:11:01.504Z,998.23
2023-04-13T08:12:01.239Z,998.27
2023-04-13T08:13:01.266Z,998.28
2023-04-13T08:14:01.450Z,998.32
2023-04-13T08:16:01.380Z,998.29
2023-04-13T08:17:03.677Z,998.33
2023-04-13T08:18:01.790Z,998.36
2023-04-13T08:19:01.534Z,998.32
2023-04-13T08:20:01.475Z,998.33
2023-04-13T08:21:01.652Z,998.35
2023-04-13T08:22:01.626Z,998.34
2023-04-13T08:23:01.565Z,998.37
2023-04-13T08:24:01.698Z,998.40
2023-04-13T08:25:01.937Z,998.43
2023-04-13T08:26:01.677Z,998.40
2023-04-13T08:27:01.684Z,998.43
2023-04-13T08:28:01.710Z,998.44
2023-04-13T08:29:01.927Z,998.42
2023-04-13T08:30:01.952Z,998.47
2023-04-13T08:33:01.908Z,998.53
2023-04-13T08:34:02.512Z,998.50
2023-04-13T08:35:01.915Z,998.51
2023-04-13T08:36:01.988Z,998.47
2023-04-13T08:37:01.996Z,998.56
2023-04-13T08:38:02.400Z,998.56
2023-04-13T08:39:02.339Z,998.57
2023-04-13T08:40:02.096Z,998.57
2023-04-13T08:41:02.117Z,998.56
2023-04-13T08:42:02.126Z,998.59
2023-04-13T08:43:02.156Z,998.61
2023-04-13T08:44:02.180Z,998.59
2023-04-13T08:45:02.288Z,998.63
2023-04-13T08:46:02.602Z,998.58
2023-04-13T08:47:02.277Z,998.59
2023-04-13T08:48:02.675Z,998.54
2023-04-13T08:49:02.332Z,998.61
2023-04-13T08:50:02.354Z,998.65
2023-04-13T08:51:02.384Z,998.60
2023-04-13T08:52:02.412Z,998.66
2023-04-13T08:53:02.700Z,998.69
2023-04-13T08:54:02.470Z,998.66
2023-04-13T08:55:02.506Z,998.69
2023-04-13T08:56:02.553Z,998.67
2023-04-13T08:57:02.561Z,998.70
2023-04-13T08:58:02.585Z,998.65
2023-04-13T08:59:02.724Z,998.72
2023-04-13T09:00:02.986Z,998.71
2023-04-13T09:01:02.716Z,998.67
2023-04-13T09:02:02.826Z,998.66
2023-04-13T09:03:05.344Z,998.66
2023-04-13T09:04:02.969Z,998.73
2023-04-13T09:05:02.862Z,998.72
2023-04-13T09:07:03.156Z,998.76
2023-04-13T09:08:02.885Z,998.81
2023-04-13T09:09:02.909Z,998.79
2023-04-13T09:10:02.938Z,998.81
2023-04-13T09:11:03.112Z,998.84
2023-04-13T09:12:03.114Z,998.79
2023-04-13T09:13:03.059Z,998.77
2023-04-13T09:14:03.367Z,998.81
2023-04-13T09:15:03.107Z,998.92
2023-04-13T09:17:05.160Z,998.93
2023-04-13T09:18:03.213Z,998.96
2023-04-13T09:19:03.204Z,998.94
2023-04-13T09:20:03.231Z,999.00
2023-04-13T09:21:03.579Z,998.96
2023-04-13T09:22:03.310Z,999.08
2023-04-13T09:23:04.919Z,999.09
2023-04-13T09:24:03.355Z,999.14
2023-04-13T09:25:03.413Z,999.07
2023-04-13T09:26:03.411Z,999.10
2023-04-13T09:27:03.445Z,999.10
2023-04-13T09:28:03.786Z,999.11
2023-04-13T09:29:03.495Z,999.16
2023-04-13T09:30:03.553Z,999.16
2023-04-13T09:31:03.637Z,999.27
2023-04-13T09:32:03.584Z,999.25
2023-04-13T09:33:03.719Z,999.28
2023-04-13T09:34:03.651Z,999.34
2023-04-13T09:35:03.982Z,999.35
2023-04-13T09:36:03.708Z,999.38
2023-04-13T09:37:03.735Z,999.42
2023-04-13T09:38:03.764Z,999.40
2023-04-13T09:39:03.943Z,999.32
2023-04-13T09:40:03.825Z,999.36
2023-04-13T09:41:03.855Z,999.38
2023-04-13T09:42:04.179Z,999.41
2023-04-13T09:43:03.928Z,999.44
2023-04-13T09:44:04.001Z,999.52
2023-04-13T09:45:03.975Z,999.49
2023-04-13T09:46:04.043Z,999.51
2023-04-13T09:47:04.027Z,999.50
2023-04-13T09:48:04.083Z,999.37
2023-04-13T09:49:04.401Z,999.38
2023-04-13T09:50:04.121Z,999.41
2023-04-13T09:51:04.154Z,999.41
2023-04-13T09:52:04.184Z,999.48
2023-04-13T09:53:04.217Z,999.61
2023-04-13T09:54:04.232Z,999.63
2023-04-13T09:55:04.570Z,999.57
2023-04-13T09:56:04.290Z,999.55
2023-04-13T09:57:04.333Z,999.53
2023-04-13T09:58:04.362Z,999.50
2023-04-13T09:59:04.401Z,999.45
2023-04-13T10:00:04.741Z,999.40
2023-04-13T10:01:04.737Z,999.46
2023-04-13T10:03:04.554Z,999.57
2023-04-13T10:04:04.531Z,999.52
2023-04-13T10:05:04.663Z,999.53
2023-04-13T10:06:04.595Z,999.52
2023-04-13T10:08:04.653Z,999.72
2023-04-13T10:09:04.683Z,999.73
2023-04-13T10:10:04.722Z,999.81
2023-04-13T10:11:04.763Z,999.84
2023-04-13T10:12:04.767Z,999.80
2023-04-13T10:13:04.804Z,999.78
2023-04-13T10:14:05.131Z,999.76
2023-04-13T10:15:04.893Z,999.74
2023-04-13T10:16:05.015Z,999.71
2023-04-13T10:17:04.927Z,999.71
2023-04-13T10:18:05.009Z,999.76
2023-04-13T10:19:05.022Z,999.77
2023-04-13T10:20:05.049Z,999.83
2023-04-13T10:21:05.345Z,999.73
2023-04-13T10:22:06.414Z,999.79
2023-04-13T10:23:05.125Z,999.82
2023-04-13T10:25:05.158Z,999.79
2023-04-13T10:26:05.192Z,999.76
2023-04-13T10:28:05.546Z,999.80
2023-04-13T10:29:05.284Z,999.81
2023-04-13T10:33:05.750Z,999.70
2023-04-13T10:34:05.418Z,999.78
2023-04-13T10:35:05.760Z,999.74
2023-04-13T10:36:05.529Z,999.74
2023-04-13T10:37:05.516Z,999.81
2023-04-13T10:38:05.542Z,999.81
2023-04-13T10:39:05.573Z,999.86
2023-04-13T10:40:05.608Z,999.91
2023-04-13T10:41:07.759Z,999.89
2023-04-13T10:43:05.692Z,999.80
2023-04-13T10:44:05.737Z,999.83
2023-04-13T10:45:05.751Z,999.82
2023-04-13T10:46:05.792Z,999.81
2023-04-13T10:47:05.899Z,999.82
2023-04-13T10:48:05.904Z,999.85
2023-04-13T10:49:06.203Z,999.81
2023-04-13T10:50:05.904Z,999.85
2023-04-13T10:51:05.942Z,999.89
2023-04-13T10:52:05.959Z,999.89
2023-04-13T10:53:06.024Z,999.93
2023-04-13T10:54:06.082Z,999.98
2023-04-13T10:55:06.059Z,1000.00
2023-04-13T10:56:06.382Z,999.94
2023-04-13T10:57:06.113Z,999.93
2023-04-13T10:58:06.136Z,999.86
2023-04-13T10:59:06.166Z,999.92
2023-04-13T11:00:06.207Z,999.97
2023-04-13T11:02:06.754Z,999.96
2023-04-13T11:03:06.566Z,999.91
2023-04-13T11:04:09.250Z,999.93
2023-04-13T11:05:06.412Z,999.94
2023-04-13T11:06:06.386Z,999.95
2023-04-13T11:07:06.409Z,999.99
2023-04-13T11:08:06.437Z,1000.00
2023-04-13T11:09:07.747Z,1000.03
2023-04-13T11:10:06.768Z,1000.05
2023-04-13T11:11:06.537Z,1000.09
2023-04-13T11:12:06.559Z,1000.09
2023-04-13T11:13:06.592Z,1000.14
2023-04-13T11:14:06.627Z,1000.18
2023-04-13T11:15:06.972Z,1000.08
2023-04-13T11:16:06.761Z,1000.16
2023-04-13T11:18:06.838Z,1000.13
2023-04-13T11:19:06.781Z,1000.14
2023-04-13T11:20:06.798Z,1000.22
2023-04-13T11:21:08.885Z,1000.20
2023-04-13T11:22:13.174Z,1000.24
2023-04-13T11:23:06.902Z,1000.19
2023-04-13T11:24:06.920Z,1000.22
2023-04-13T11:25:06.983Z,1000.21
2023-04-13T11:26:06.983Z,1000.20
2023-04-13T11:28:07.336Z,1000.22
2023-04-13T11:29:07.070Z,1000.18
2023-04-13T11:30:07.104Z,1000.17
2023-04-13T11:31:07.129Z,1000.22
2023-04-13T11:32:07.199Z,1000.19
2023-04-13T11:33:07.241Z,1000.19
2023-04-13T11:34:07.518Z,1000.16
2023-04-13T11:35:07.291Z,1000.17
2023-04-13T11:36:07.295Z,1000.22
2023-04-13T11:37:07.331Z,1000.28
2023-04-13T11:38:07.339Z,1000.28
2023-04-13T11:39:09.012Z,1000.34
2023-04-13T11:40:07.401Z,1000.33
2023-04-13T11:41:15.736Z,1000.31
2023-04-13T11:42:07.453Z,1000.25
2023-04-13T11:43:07.485Z,1000.29
2023-04-13T11:44:07.550Z,1000.29
2023-04-13T11:45:07.550Z,1000.24
2023-04-13T11:46:07.592Z,1000.29
2023-04-13T11:47:07.899Z,1000.28
2023-04-13T11:48:08.175Z,1000.35
2023-04-13T11:49:07.659Z,1000.27
2023-04-13T11:50:07.726Z,1000.31
2023-04-13T11:51:07.840Z,1000.31
2023-04-13T11:52:07.755Z,1000.39
2023-04-13T11:53:07.824Z,1000.36
2023-04-13T11:54:07.818Z,1000.35
2023-04-13T11:55:21.623Z,1000.35
2023-04-13T11:56:07.915Z,1000.41
2023-04-13T11:57:07.910Z,1000.42
2023-04-13T11:58:07.936Z,1000.46
2023-04-13T11:59:07.963Z,1000.48
2023-04-13T12:00:08.029Z,1000.49
2023-04-13T12:01:13.834Z,1000.55
2023-04-13T12:02:17.016Z,1000.55
2023-04-13T12:04:14.647Z,1000.54
2023-04-13T12:05:08.378Z,1000.52
2023-04-13T12:06:08.386Z,1000.49
2023-04-13T12:07:08.822Z,1000.54
2023-04-13T12:08:08.625Z,1000.45
2023-04-13T12:09:13.505Z,1000.50
2023-04-13T12:11:38.967Z,1000.49
2023-04-13T12:12:46.213Z,1000.48
2023-04-13T12:13:18.421Z,1000.53
2023-04-13T12:14:13.825Z,1000.52
2023-04-13T12:15:23.052Z,1000.58
2023-04-13T12:16:17.241Z,1000.56
2023-04-13T12:17:34.368Z,1000.59
2023-04-13T12:19:09.551Z,1000.52
2023-04-13T12:20:10.048Z,1000.51
2023-04-13T12:21:10.284Z,1000.50
2023-04-13T12:22:09.740Z,1000.53
2023-04-13T12:23:19.174Z,1000.50
2023-04-13T12:24:08.737Z,1000.51
2023-04-13T12:25:08.868Z,1000.46
2023-04-13T12:26:40.723Z,1000.49
2023-04-13T12:27:17.002Z,1000.48
2023-04-13T12:28:08.834Z,1000.45
2023-04-13T12:29:08.883Z,1000.45
2023-04-13T12:30:09.293Z,1000.51
2023-04-13T12:31:08.958Z,1000.45
2023-04-13T12:32:08.953Z,1000.44
2023-04-13T12:33:09.117Z,1000.51
2023-04-13T12:34:09.012Z,1000.51
2023-04-13T12:35:09.143Z,1000.49
2023-04-13T12:36:09.071Z,1000.56
2023-04-13T12:37:09.355Z,1000.48
2023-04-13T12:38:09.135Z,1000.50
2023-04-13T12:39:09.172Z,1000.53
2023-04-13T12:40:09.244Z,1000.54
2023-04-13T12:41:09.263Z,1000.51
2023-04-13T12:42:09.255Z,1000.49
2023-04-13T12:43:09.287Z,1000.52
2023-04-13T12:44:09.681Z,1000.57
2023-04-13T12:45:09.353Z,1000.54
2023-04-13T12:46:09.371Z,1000.56
2023-04-13T12:47:09.442Z,1000.54
2023-04-13T12:48:09.601Z,1000.56
2023-04-13T12:49:09.477Z,1000.52
2023-04-13T12:50:09.654Z,1000.51
2023-04-13T12:51:09.830Z,1000.54
2023-04-13T12:52:09.561Z,1000.51
2023-04-13T12:54:09.632Z,1000.52
2023-04-13T12:55:09.948Z,1000.58
2023-04-13T12:56:09.670Z,1000.60
2023-04-13T12:57:09.731Z,1000.59
2023-04-13T12:58:09.756Z,1000.61
2023-04-13T12:59:09.768Z,1000.63
2023-04-13T13:00:09.810Z,1000.60
2023-04-13T13:01:09.887Z,1000.62
2023-04-13T13:02:09.909Z,1000.60
2023-04-13T13:03:14.662Z,1000.65
2023-04-13T13:04:10.290Z,1000.69
2023-04-13T13:05:09.952Z,1000.71
2023-04-13T13:06:09.974Z,1000.69
2023-04-13T13:07:10.011Z,1000.75
2023-04-13T13:08:10.048Z,1000.77
2023-04-13T13:09:10.065Z,1000.70
2023-04-13T13:11:10.128Z,1000.66
2023-04-13T13:12:10.154Z,1000.61
2023-04-13T13:13:10.203Z,1000.64
2023-04-13T13:14:11.255Z,1000.63
2023-04-13T13:15:10.243Z,1000.62
2023-04-13T13:17:10.636Z,1000.61
2023-04-13T13:19:10.373Z,1000.68
2023-04-13T13:20:10.401Z,1000.63
2023-04-13T13:21:10.423Z,1000.58
2023-04-13T13:22:10.468Z,1000.65
2023-04-13T13:23:10.794Z,1000.66
2023-04-13T13:24:10.528Z,1000.63
2023-04-13T13:25:10.564Z,1000.63